Time;durP1;ratioP1;P1;durP2;ratioP2;P2;SDS_P1;SDS_P2;PMS_P1;PMS_P2;Temp;Humidity;BMP_temperature;BMP_pressure;BME280_temperature;BME280_humidity;BME280_pressure;Samples;Min_cycle;Max_cycle;Signal;HPM_P1;HPM_P2
2022/01/22 00:02:27;;;;;;;5.32;2.20;;;;;;;-1.39;72.40;100963.88;5576897;31;34003;-66
2022/01/22 00:05:30;;;;;;;4.72;1.65;;;;;;;-1.47;73.02;100984.25;5577399;31;34412;-66
2022/01/22 00:08:33;;;;;;;3.80;2.00;;;;;;;-1.55;72.91;100983.78;5576945;31;33978;-66
2022/01/22 00:11:40;;;;;;;6.68;2.17;;;;;;;-1.50;73.16;100970.56;5590508;31;34932;-67
2022/01/22 00:14:42;;;;;;;6.03;2.20;;;;;;;-1.59;73.46;100966.63;5576885;31;34024;-66
2022/01/22 00:17:47;;;;;;;6.87;1.87;;;;;;;-1.59;74.00;100958.00;5590513;31;33893;-65
2022/01/22 00:20:50;;;;;;;5.22;1.90;;;;;;;-1.57;73.33;100948.34;5590524;31;34376;-66
2022/01/22 00:23:56;;;;;;;7.72;2.35;;;;;;;-1.65;74.47;100951.34;5590946;31;35217;-66
2022/01/22 00:26:59;;;;;;;7.28;2.40;;;;;;;-1.58;74.45;100946.66;5590353;31;35252;-67
2022/01/22 00:30:04;;;;;;;8.02;2.40;;;;;;;-1.60;74.18;100957.19;5590323;31;33932;-66
2022/01/22 00:33:08;;;;;;;6.85;1.98;;;;;;;-1.48;73.14;100946.13;5590456;31;34638;-65
2022/01/22 00:36:11;;;;;;;6.45;2.10;;;;;;;-1.51;73.11;100935.06;5590519;31;34623;-67
2022/01/22 00:39:14;;;;;;;8.85;2.25;;;;;;;-1.44;72.65;100926.00;5576547;31;34652;-67
2022/01/22 00:42:17;;;;;;;3.75;2.00;;;;;;;-1.51;72.81;100933.28;5590219;31;34269;-67
2022/01/22 00:45:20;;;;;;;4.72;1.90;;;;;;;-1.41;71.31;100931.91;5576586;31;33960;-66
2022/01/22 00:48:23;;;;;;;6.85;2.37;;;;;;;-1.48;71.29;100921.87;5590185;31;33979;-66
2022/01/22 00:51:26;;;;;;;6.03;1.77;;;;;;;-1.48;71.75;100919.28;5590271;31;33962;-67
2022/01/22 00:54:29;;;;;;;4.05;1.80;;;;;;;-1.45;71.12;100911.28;5590308;31;33998;-65
2022/01/22 00:57:32;;;;;;;3.05;1.35;;;;;;;-1.57;71.34;100919.75;5590198;31;34634;-66
2022/01/22 01:00:35;;;;;;;7.78;2.08;;;;;;;-1.63;71.86;100920.88;5590318;31;35193;-66
2022/01/22 01:03:38;;;;;;;9.95;2.25;;;;;;;-1.70;71.78;100914.31;5590164;31;33917;-66
2022/01/22 01:06:41;;;;;;;3.85;1.87;;;;;;;-1.48;70.36;100896.69;5590143;31;34333;-66
2022/01/22 01:09:44;;;;;;;7.87;1.62;;;;;;;-1.49;70.88;100884.59;5590059;31;34232;-66
2022/01/22 01:12:48;;;;;;;7.70;1.80;;;;;;;-1.33;69.77;100884.66;5589930;31;34087;-66
2022/01/22 01:32:46;;;;;;;3.40;1.70;;;;;;;-1.33;69.50;100835.22;5589763;31;33931;-65
2022/01/22 01:35:49;;;;;;;5.68;1.77;;;;;;;-1.58;70.78;100821.78;5589926;31;35229;-66
2022/01/22 01:38:57;;;;;;;5.35;2.10;;;;;;;-1.65;71.70;100817.84;5589889;31;33968;-66
2022/01/22 01:45:06;;;;;;;5.22;1.42;;;;;;;-1.29;68.92;100792.47;5589693;31;34294;-66
2022/01/22 01:48:16;;;;;;;3.95;1.23;;;;;;;-1.19;68.80;100779.81;5589804;31;34202;-67
2022/01/22 01:51:21;;;;;;;5.25;1.30;;;;;;;-1.11;68.65;100775.84;5589746;31;34575;-66
2022/01/22 01:54:45;;;;;;;4.68;1.30;;;;;;;-1.15;68.80;100760.47;5589723;31;34009;-66
2022/01/22 01:57:48;;;;;;;2.55;1.00;;;;;;;-1.13;68.12;100762.09;5575917;31;34569;-65
2022/01/22 02:00:51;;;;;;;3.85;1.30;;;;;;;-1.23;69.16;100741.84;5576314;31;33804;-66
2022/01/22 02:03:54;;;;;;;5.43;1.12;;;;;;;-1.09;68.76;100747.97;5575966;31;34416;-66
2022/01/22 02:06:57;;;;;;;2.95;0.88;;;;;;;-1.00;68.47;100737.03;5589630;31;35070;-66
2022/01/22 02:10:02;;;;;;;5.25;1.30;;;;;;;-0.80;68.34;100728.13;5589670;31;34061;-66
2022/01/22 02:23:42;;;;;;;5.20;1.45;;;;;;;-0.97;69.35;100726.44;5589480;31;35251;-66
2022/01/22 02:26:47;;;;;;;4.53;1.30;;;;;;;-1.09;69.91;100713.28;5589315;31;34551;-65
2022/01/22 02:29:50;;;;;;;4.50;1.48;;;;;;;-1.11;70.78;100720.34;5589685;31;35145;-65
2022/01/22 02:33:52;;;;;;;4.18;1.30;;;;;;;-1.17;71.39;100720.69;5589377;31;34679;-66
2022/01/22 02:36:38;;;;;;;3.90;1.52;;;;;;;-1.31;71.97;100693.66;5583368;31;34552;-66
2022/01/22 02:39:57;;;;;;;3.90;1.30;;;;;;;-1.34;71.87;100683.41;5589262;31;34000;-66
2022/01/22 02:43:00;;;;;;;2.00;1.12;;;;;;;-1.19;71.27;100684.31;5589237;31;34067;-66
2022/01/22 02:46:03;;;;;;;3.08;1.35;;;;;;;-1.20;71.54;100700.88;5587923;31;35164;-65
2022/01/22 02:49:06;;;;;;;3.05;1.50;;;;;;;-1.16;71.39;100698.97;5589479;31;34817;-66
2022/01/22 02:52:10;;;;;;;8.25;2.08;;;;;;;-1.20;71.66;100693.06;5589432;31;34096;-66
2022/01/22 02:55:14;;;;;;;3.15;1.45;;;;;;;-1.23;71.85;100687.19;5589352;31;33919;-66
2022/01/22 02:58:17;;;;;;;6.55;1.40;;;;;;;-1.31;72.49;100679.81;5588933;31;33980;-66
2022/01/22 03:01:23;;;;;;;3.22;1.30;;;;;;;-1.37;73.11;100696.62;5589142;31;33977;-66
2022/01/22 03:04:26;;;;;;;6.43;1.60;;;;;;;-1.33;72.87;100690.31;5589300;31;33913;-66
2022/01/22 03:07:28;;;;;;;3.83;1.23;;;;;;;-1.31;73.06;100688.44;5589229;31;34587;-66
2022/01/22 03:10:32;;;;;;;4.70;1.27;;;;;;;-1.28;73.12;100665.78;5588723;31;34569;-67
2022/01/22 03:16:57;;;;;;;2.40;1.00;;;;;;;-1.44;74.14;100660.59;5588765;31;33896;-66
2022/01/22 03:29:39;;;;;;;5.72;1.55;;;;;;;-0.83;70.53;100686.62;5588309;31;34555;-65
2022/01/22 03:32:46;;;;;;;2.70;1.00;;;;;;;-0.75;70.04;100684.41;5588414;31;34002;-66
2022/01/22 03:35:55;;;;;;;1.83;1.10;;;;;;;-0.66;69.61;100667.41;5588378;31;33859;-66
2022/01/22 03:38:58;;;;;;;2.95;1.20;;;;;;;-0.64;69.99;100653.38;5588211;31;34551;-65
2022/01/22 03:42:01;;;;;;;1.75;0.93;;;;;;;-0.47;69.28;100658.41;5588315;31;33943;-65
2022/01/22 03:45:07;;;;;;;3.85;1.40;;;;;;;-0.45;69.34;100664.37;5588507;31;33940;-65
2022/01/22 03:48:10;;;;;;;3.05;1.00;;;;;;;-0.36;69.55;100664.75;5588123;31;33703;-66
2022/01/22 03:51:13;;;;;;;1.92;0.98;;;;;;;-0.30;71.09;100649.59;5587976;31;34821;-65
2022/01/22 03:54:16;;;;;;;3.92;1.60;;;;;;;-0.41;73.42;100648.56;5574301;31;34027;-67
2022/01/22 03:57:22;;;;;;;3.05;1.00;;;;;;;-0.47;74.55;100645.38;5590413;31;33898;-66
2022/01/22 04:00:25;;;;;;;4.82;1.20;;;;;;;-0.53;75.17;100634.47;5590975;31;33932;-66
2022/01/22 04:03:36;;;;;;;3.78;1.00;;;;;;;-0.55;75.48;100620.72;5577050;31;34852;-66
2022/01/22 04:10:14;;;;;;;2.75;1.25;;;;;;;-0.45;74.14;100622.69;5572860;31;34028;-66
2022/01/22 04:13:21;;;;;;;3.72;1.12;;;;;;;-0.39;74.96;100607.59;5590650;31;34368;-65
2022/01/22 04:16:24;;;;;;;1.60;1.00;;;;;;;-0.43;75.51;100615.59;5564459;31;34566;-66
2022/01/22 04:29:14;;;;;;;2.08;1.10;;;;;;;-0.75;88.45;100601.06;5590436;31;34610;-65
2022/01/22 04:32:16;;;;;;;4.32;1.80;;;;;;;-0.82;89.85;100601.53;5576563;31;34065;-65
2022/01/22 04:35:22;;;;;;;3.08;1.55;;;;;;;-0.76;89.63;100607.19;5576718;31;34532;-65
2022/01/22 04:38:25;;;;;;;4.18;1.70;;;;;;;-0.87;92.08;100604.34;5590394;31;33900;-65
2022/01/22 04:41:28;;;;;;;3.92;1.83;;;;;;;-1.00;94.37;100599.03;5576686;31;34004;-65
2022/01/22 04:44:36;;;;;;;5.28;1.60;;;;;;;-0.97;97.60;100609.28;5576584;31;33889;-66
2022/01/22 04:47:57;;;;;;;4.25;1.60;;;;;;;-1.23;100.00;100616.91;5590452;31;34073;-66
2022/01/22 04:57:45;;;;;;;3.70;1.90;;;;;;;-1.51;100.00;100600.28;5590547;31;34657;-66
2022/01/22 05:00:48;;;;;;;5.65;2.25;;;;;;;-1.57;100.00;100603.19;5590126;31;33863;-66
2022/01/22 05:03:53;;;;;;;2.92;1.70;;;;;;;-1.61;100.00;100604.31;5590256;31;34506;-65
2022/01/22 05:06:56;;;;;;;5.32;1.98;;;;;;;-1.58;100.00;100603.28;5589525;31;33964;-66
2022/01/22 05:10:01;;;;;;;3.92;1.80;;;;;;;-1.59;100.00;100591.19;5590112;31;33922;-66
2022/01/22 05:13:06;;;;;;;4.72;2.00;;;;;;;-1.66;100.00;100584.66;5590156;31;33957;-66
2022/01/22 05:16:08;;;;;;;6.45;2.08;;;;;;;-1.80;100.00;100585.44;5590073;31;33982;-66
2022/01/22 05:19:22;;;;;;;3.37;1.77;;;;;;;-1.79;100.00;100582.72;5576664;31;34286;-66
2022/01/22 05:22:43;;;;;;;4.35;2.37;;;;;;;-1.72;100.00;100580.66;5590032;31;34698;-66
2022/01/22 05:25:57;;;;;;;4.97;2.30;;;;;;;-1.80;100.00;100598.44;5590237;31;34848;-66
2022/01/22 05:38:50;;;;;;;4.28;2.40;;;;;;;-1.67;100.00;100581.22;5589753;31;33966;-66
2022/01/22 05:41:52;;;;;;;3.95;2.20;;;;;;;-1.72;100.00;100580.66;5589907;31;34661;-67
2022/01/22 05:44:55;;;;;;;4.18;2.15;;;;;;;-1.69;100.00;100577.06;5590062;31;34387;-66
2022/01/22 05:47:58;;;;;;;3.75;1.70;;;;;;;-1.74;100.00;100559.06;5589881;31;33844;-66
2022/01/22 05:51:04;;;;;;;3.40;1.95;;;;;;;-1.59;100.00;100576.44;5589758;31;34331;-66
2022/01/22 06:00:53;;;;;;;3.45;2.37;;;;;;;-1.58;100.00;100559.06;5590053;31;34019;-66
2022/01/22 06:03:56;;;;;;;3.72;2.35;;;;;;;-1.53;100.00;100563.09;5589757;31;34525;-66
2022/01/22 06:06:59;;;;;;;3.45;2.25;;;;;;;-1.62;100.00;100557.56;5576198;31;34672;-66
2022/01/22 06:10:15;;;;;;;4.03;2.08;;;;;;;-1.62;100.00;100562.75;5589602;31;34311;-66
2022/01/22 06:13:20;;;;;;;2.50;1.77;;;;;;;-1.53;100.00;100557.03;5589985;31;34050;-66
2022/01/22 06:16:24;;;;;;;2.95;2.00;;;;;;;-1.50;100.00;100564.69;5589545;31;33861;-66
2022/01/22 06:19:28;;;;;;;3.72;1.90;;;;;;;-1.44;100.00;100567.75;5589539;31;33841;-66
2022/01/22 06:22:31;;;;;;;2.78;1.80;;;;;;;-1.48;100.00;100563.66;5589333;31;34080;-66
2022/01/22 06:25:33;;;;;;;3.90;1.77;;;;;;;-1.51;100.00;100566.44;5589234;31;34315;-66
2022/01/22 06:28:37;;;;;;;7.72;2.00;;;;;;;-1.32;100.00;100564.47;5589013;31;34151;-66
2022/01/22 06:31:40;;;;;;;3.15;1.70;;;;;;;-1.31;100.00;100566.13;5589319;31;33965;-66
2022/01/22 06:34:43;;;;;;;3.00;1.70;;;;;;;-1.19;100.00;100577.59;5589295;31;34257;-67
2022/01/22 06:37:45;;;;;;;2.33;1.58;;;;;;;-1.04;100.00;100581.09;5589604;31;34186;-66
2022/01/22 06:44:13;;;;;;;2.28;1.12;;;;;;;-1.12;100.00;100601.53;5589294;31;34490;-67
2022/01/22 06:47:17;;;;;;;2.47;1.60;;;;;;;-1.10;100.00;100603.09;5589468;31;34565;-65
2022/01/22 06:50:21;;;;;;;2.95;1.45;;;;;;;-1.00;100.00;100614.66;5575719;31;35152;-67
2022/01/22 06:53:26;;;;;;;4.80;1.60;;;;;;;-1.00;100.00;100625.09;5575840;31;34790;-66
2022/01/22 06:56:30;;;;;;;2.47;1.60;;;;;;;-0.98;100.00;100614.59;5589399;31;33986;-66
2022/01/22 06:59:33;;;;;;;4.30;1.83;;;;;;;-0.98;100.00;100620.63;5589041;31;34005;-66
2022/01/22 07:02:36;;;;;;;2.62;1.65;;;;;;;-0.87;100.00;100627.81;5575387;31;33995;-66
2022/01/22 07:05:39;;;;;;;2.30;1.60;;;;;;;-0.86;100.00;100624.28;5588843;31;34670;-66
2022/01/22 07:08:42;;;;;;;2.70;1.60;;;;;;;-0.84;100.00;100627.63;5588863;31;34316;-67
2022/01/22 07:11:45;;;;;;;2.50;1.42;;;;;;;-0.85;100.00;100635.53;5588640;31;33965;-66
2022/01/22 07:14:50;;;;;;;2.10;1.58;;;;;;;-0.80;100.00;100630.91;5575122;31;34567;-66
2022/01/22 07:17:55;;;;;;;3.10;1.85;;;;;;;-0.79;100.00;100624.78;5589072;31;33894;-66
2022/01/22 07:20:58;;;;;;;3.15;1.95;;;;;;;-0.67;100.00;100619.66;5588677;31;34269;-67
2022/01/22 07:27:05;;;;;;;2.22;1.50;;;;;;;-0.40;100.00;100627.63;5588673;31;34071;-66
2022/01/22 07:30:08;;;;;;;3.22;1.83;;;;;;;-0.43;100.00;100631.22;5588299;31;35458;-66
2022/01/22 07:33:12;;;;;;;2.40;1.60;;;;;;;-0.45;100.00;100635.72;5590758;31;34615;-66
2022/01/22 07:36:16;;;;;;;2.22;1.27;;;;;;;-0.42;100.00;100632.06;5591154;31;33959;-66
2022/01/22 07:39:19;;;;;;;2.67;1.30;;;;;;;-0.21;100.00;100620.34;5590924;31;34428;-66
2022/01/22 07:42:23;;;;;;;1.70;1.27;;;;;;;-0.05;100.00;100628.09;5577242;31;34650;-66
2022/01/22 07:45:26;;;;;;;1.75;1.20;;;;;;;-0.04;100.00;100630.59;5591061;31;33980;-67
2022/01/22 07:48:30;;;;;;;3.83;1.60;;;;;;;-0.04;100.00;100656.66;5590737;31;34681;-66
2022/01/22 07:51:37;;;;;;;2.22;1.40;;;;;;;-0.02;99.78;100652.19;5577471;31;34017;-66
2022/01/22 07:54:40;;;;;;;6.35;1.83;;;;;;;0.00;99.70;100652.94;5590828;31;34410;-66
2022/01/22 07:57:44;;;;;;;2.92;1.58;;;;;;;-0.04;99.90;100648.00;5590616;31;33931;-66
2022/01/22 08:00:47;;;;;;;2.25;1.60;;;;;;;-0.10;100.00;100645.78;5590494;31;32816;-66
2022/01/22 08:03:51;;;;;;;3.65;1.80;;;;;;;0.00;100.00;100645.09;5590617;31;34057;-66
2022/01/22 08:07:01;;;;;;;2.97;1.73;;;;;;;-0.07;100.00;100664.69;5590999;31;34373;-66
2022/01/22 08:10:10;;;;;;;3.67;2.03;;;;;;;0.02;100.00;100655.44;5577004;31;34378;-66
2022/01/22 08:13:13;;;;;;;3.28;2.25;;;;;;;-0.04;100.00;100661.88;5590748;31;33973;-66
2022/01/22 08:16:16;;;;;;;3.17;1.67;;;;;;;-0.02;100.00;100670.47;5576707;31;34705;-66
2022/01/22 08:19:19;;;;;;;3.33;2.00;;;;;;;-0.44;100.00;100671.25;5590393;31;34009;-66
2022/01/22 08:22:22;;;;;;;3.00;1.90;;;;;;;-0.51;100.00;100669.94;5590321;31;34294;-67
2022/01/22 08:25:32;;;;;;;2.97;2.15;;;;;;;-0.49;100.00;100675.09;5590804;31;34625;-67
2022/01/22 08:28:53;;;;;;;3.55;2.15;;;;;;;-0.35;100.00;100679.47;5576763;31;34021;-66
2022/01/22 08:32:07;;;;;;;4.00;2.20;;;;;;;-0.40;100.00;100671.09;5590202;31;34157;-66
2022/01/22 08:38:31;;;;;;;3.95;2.30;;;;;;;-0.38;100.00;100657.00;5590464;31;34059;-67
2022/01/22 08:41:35;;;;;;;4.53;2.20;;;;;;;-0.29;98.97;100674.72;5589549;31;34214;-66
2022/01/22 08:44:40;;;;;;;3.42;2.37;;;;;;;-0.23;98.78;100684.78;5589828;31;33993;-67
2022/01/22 08:47:43;;;;;;;5.15;2.60;;;;;;;-0.16;97.45;100690.47;5590165;31;34070;-66
2022/01/22 08:50:47;;;;;;;4.85;2.40;;;;;;;0.02;95.25;100699.78;5590206;31;34664;-67
2022/01/22 08:54:10;;;;;;;4.47;2.40;;;;;;;-0.07;94.34;100695.13;5590304;31;34204;-66
2022/01/22 08:57:13;;;;;;;4.15;2.55;;;;;;;-0.04;93.43;100703.59;5590130;31;34017;-67
2022/01/22 09:00:19;;;;;;;4.12;2.47;;;;;;;0.05;94.36;100701.37;5590185;31;33937;-67
2022/01/22 09:03:23;;;;;;;3.55;1.42;;;;;;;0.07;91.58;100707.34;5576266;31;34223;-67
2022/01/22 09:06:28;;;;;;;3.12;1.42;;;;;;;0.36;81.15;100724.66;5590443;31;34608;-66
2022/01/22 09:09:32;;;;;;;1.48;0.95;;;;;;;0.52;76.88;100729.78;5590121;31;35152;-66
2022/01/22 09:12:35;;;;;;;2.60;1.20;;;;;;;0.63;75.77;100716.91;5590159;31;34478;-66
2022/01/22 09:15:38;;;;;;;2.83;1.27;;;;;;;0.56;76.28;100726.03;5590480;31;34063;-66
2022/01/22 09:18:42;;;;;;;7.07;1.60;;;;;;;0.61;75.05;100730.03;5590084;31;34190;-66
2022/01/22 09:21:48;;;;;;;1.90;1.20;;;;;;;0.65;75.67;100728.91;5589724;31;33979;-66
2022/01/22 09:24:52;;;;;;;1.83;1.25;;;;;;;0.71;74.85;100746.81;5589767;31;33927;-66
2022/01/22 09:27:55;;;;;;;2.70;1.30;;;;;;;0.76;74.10;100749.13;5589785;31;33934;-66
2022/01/22 09:30:58;;;;;;;2.33;1.30;;;;;;;0.86;73.94;100745.00;5589570;31;35277;-66
2022/01/22 09:34:02;;;;;;;2.22;1.30;;;;;;;0.91;73.92;100755.16;5589630;31;34088;-66
2022/01/22 09:37:05;;;;;;;2.10;1.27;;;;;;;0.90;73.47;100759.53;5589869;31;33940;-66
2022/01/22 09:40:09;;;;;;;3.03;1.40;;;;;;;0.90;73.65;100763.91;5589734;31;35163;-66
2022/01/22 09:43:14;;;;;;;2.15;1.30;;;;;;;0.92;73.56;100760.25;5589249;31;33911;-67
2022/01/22 09:46:19;;;;;;;2.62;1.27;;;;;;;0.97;72.92;100766.03;5589449;31;33949;-66
2022/01/22 09:49:23;;;;;;;3.92;1.40;;;;;;;0.93;72.24;100772.41;5589772;31;34615;-66
2022/01/22 09:52:27;;;;;;;3.12;1.00;;;;;;;0.99;70.34;100769.41;5589597;31;34192;-66
2022/01/22 09:55:31;;;;;;;1.67;0.90;;;;;;;0.95;71.03;100764.47;5588982;31;34598;-65
2022/01/22 09:58:34;;;;;;;2.80;1.10;;;;;;;0.84;71.05;100759.91;5589607;31;33940;-66
2022/01/22 10:01:40;;;;;;;2.70;1.48;;;;;;;0.87;69.43;100754.53;5589374;31;34670;-67
2022/01/22 10:04:48;;;;;;;2.60;1.33;;;;;;;1.01;70.16;100751.03;5589739;31;34738;-67
2022/01/22 10:07:53;;;;;;;3.95;1.58;;;;;;;1.08;70.11;100760.13;5589803;31;34618;-67
2022/01/22 10:10:59;;;;;;;4.78;1.30;;;;;;;1.07;70.29;100755.84;5589672;31;33961;-67
2022/01/22 10:14:03;;;;;;;2.15;1.23;;;;;;;1.16;69.49;100766.53;5589709;31;33975;-67
2022/01/22 10:17:06;;;;;;;2.58;1.45;;;;;;;1.05;67.88;100763.78;5589335;31;35277;-67
2022/01/22 10:20:20;;;;;;;1.52;1.20;;;;;;;1.14;68.22;100760.59;5589316;31;33942;-67
2022/01/22 10:23:25;;;;;;;3.28;1.50;;;;;;;1.15;66.93;100764.03;5589310;31;34290;-66
2022/01/22 10:26:27;;;;;;;2.47;1.23;;;;;;;1.09;67.25;100764.44;5584646;31;139622;-66
2022/01/22 10:29:30;;;;;;;3.95;1.40;;;;;;;1.04;66.94;100775.16;5588787;31;34049;-66
2022/01/22 10:36:16;;;;;;;2.92;1.48;;;;;;;1.25;67.42;100779.03;5589239;31;34104;-66
2022/01/22 10:39:26;;;;;;;3.70;1.27;;;;;;;1.21;67.54;100782.75;5589172;31;34733;-66
2022/01/22 10:42:29;;;;;;;3.15;1.67;;;;;;;1.30;67.00;100781.34;5589426;31;34002;-66
2022/01/22 10:45:32;;;;;;;2.42;1.58;;;;;;;1.27;65.19;100782.37;5589115;31;33964;-66
2022/01/22 10:48:43;;;;;;;3.40;1.60;;;;;;;1.28;67.15;100785.81;5588894;31;34639;-68
2022/01/22 10:51:59;;;;;;;3.20;1.52;;;;;;;1.39;63.31;100796.44;5589125;31;33901;-67
2022/01/22 10:55:02;;;;;;;4.20;1.42;;;;;;;1.47;63.61;100788.94;5589013;31;33916;-65
2022/01/22 10:58:09;;;;;;;4.60;1.45;;;;;;;1.45;64.11;100795.22;5588922;31;34180;-66
2022/01/22 11:01:13;;;;;;;3.90;1.50;;;;;;;1.58;61.27;100796.06;5574963;31;34127;-65
2022/01/22 11:04:22;;;;;;;2.42;1.30;;;;;;;1.69;60.17;100801.44;5588909;31;35304;-67
2022/01/22 11:07:25;;;;;;;2.47;1.30;;;;;;;1.70;57.46;100792.63;5588254;31;34212;-66
2022/01/22 11:10:36;;;;;;;;;;;;;;;1.78;58.12;100802.63;5589018;31;35295;-67
2022/01/22 11:13:38;;;;;;;3.47;1.30;;;;;;;1.96;55.89;100804.00;5589175;31;34908;-67
2022/01/22 11:16:43;;;;;;;5.60;1.40;;;;;;;1.92;57.07;100808.59;5588613;31;34277;-66
2022/01/22 11:19:51;;;;;;;2.92;1.40;;;;;;;1.89;58.28;100815.81;5588429;31;34122;-66
2022/01/22 11:22:53;;;;;;;2.28;1.20;;;;;;;1.89;59.14;100821.88;5588109;31;34058;-67
2022/01/22 11:25:56;;;;;;;3.15;1.20;;;;;;;1.95;58.87;100826.69;5574754;31;34067;-67
2022/01/22 11:29:00;;;;;;;2.87;1.58;;;;;;;2.03;58.36;100839.28;5588216;31;34046;-67
2022/01/22 11:32:09;;;;;;;5.57;1.70;;;;;;;2.04;57.20;100833.09;5588387;31;34505;-66
2022/01/22 11:35:13;;;;;;;2.87;1.40;;;;;;;1.94;58.30;100829.41;5588434;31;34603;-68
2022/01/22 11:38:26;;;;;;;2.40;1.30;;;;;;;2.05;59.43;100843.47;5588244;31;34267;-67
2022/01/22 11:41:28;;;;;;;3.08;1.30;;;;;;;1.92;56.58;100826.91;5588017;31;34655;-67
2022/01/22 11:44:40;;;;;;;2.97;1.20;;;;;;;2.04;57.88;100830.47;5574273;31;33848;-68
2022/01/22 11:48:13;;;;;;;2.28;1.10;;;;;;;1.90;56.84;100841.88;5588122;31;34659;-67
2022/01/22 11:51:23;;;;;;;2.42;1.05;;;;;;;1.88;58.18;100846.38;5588016;31;34043;-68
2022/01/22 11:54:26;;;;;;;2.20;1.10;;;;;;;1.90;56.40;100848.88;5574040;31;35147;-67
2022/01/22 11:57:31;;;;;;;2.05;1.10;;;;;;;1.84;56.81;100855.34;5587494;31;34657;-67
2022/01/22 12:00:40;;;;;;;2.75;1.08;;;;;;;1.88;56.06;100874.31;5587041;31;33514;-68
2022/01/22 12:03:56;;;;;;;2.87;1.05;;;;;;;1.80;55.80;100874.81;5587731;31;34431;-67
2022/01/22 12:07:17;;;;;;;1.85;1.20;;;;;;;1.81;54.99;100876.47;5587599;31;34744;-67
2022/01/22 12:10:35;;;;;;;2.78;1.20;;;;;;;1.79;54.93;100860.06;5587914;31;34864;-66
2022/01/22 12:17:13;;;;;;;1.77;1.10;;;;;;;2.06;56.66;100866.09;5588302;31;34080;-67
2022/01/22 12:23:40;;;;;;;1.58;1.12;;;;;;;3.44;48.66;100864.28;5590603;31;34083;-68
2022/01/22 12:26:45;;;;;;;2.42;1.05;;;;;;;3.03;49.53;100856.75;5590557;31;34561;-68
2022/01/22 12:29:59;;;;;;;2.47;1.00;;;;;;;3.33;49.27;100859.00;5590257;31;34075;-68
2022/01/22 12:33:05;;;;;;;2.80;1.10;;;;;;;3.18;48.80;100851.38;5590395;31;34019;-67
2022/01/22 12:36:24;;;;;;;1.42;0.90;;;;;;;3.32;48.48;100852.06;5590195;31;33952;-70
2022/01/22 12:39:29;;;;;;;2.10;1.33;;;;;;;2.99;48.75;100860.56;5590454;31;34678;-68
2022/01/22 12:42:55;;;;;;;1.70;0.80;;;;;;;3.30;49.51;100858.34;5590233;31;34747;-67
2022/01/22 12:46:03;;;;;;;3.00;1.17;;;;;;;3.27;49.14;100848.94;5590237;31;34286;-69
2022/01/22 12:49:08;;;;;;;1.25;0.82;;;;;;;3.18;48.42;100854.00;5590126;31;33953;-69
2022/01/22 12:52:13;;;;;;;1.67;1.00;;;;;;;2.90;49.01;100861.19;5590188;31;34288;-68
2022/01/22 12:55:25;;;;;;;2.28;1.08;;;;;;;3.43;48.73;100872.28;5590263;31;34305;-67
2022/01/22 12:58:37;;;;;;;2.30;1.00;;;;;;;3.14;47.36;100857.78;5590165;31;33951;-68
2022/01/22 13:01:45;;;;;;;2.37;1.23;;;;;;;3.48;45.93;100862.31;5590162;31;33996;-68
2022/01/22 13:05:01;;;;;;;7.22;1.20;;;;;;;3.61;46.16;100867.50;5590192;31;34096;-69
2022/01/22 13:08:07;;;;;;;4.45;1.35;;;;;;;3.54;46.58;100867.09;5590106;31;34516;-66
2022/01/22 13:11:18;;;;;;;2.95;1.20;;;;;;;3.75;46.54;100876.03;5576732;31;34627;-69
2022/01/22 13:14:30;;;;;;;2.03;0.98;;;;;;;3.54;45.26;100882.81;5576216;31;34728;-68
2022/01/22 13:17:33;;;;;;;2.00;0.77;;;;;;;3.40;44.59;100878.56;5589905;31;33954;-69
2022/01/22 13:20:36;;;;;;;2.05;1.10;;;;;;;3.14;43.82;100886.62;5589661;31;34602;-68
2022/01/22 13:23:39;;;;;;;1.52;1.10;;;;;;;2.88;44.98;100897.13;5590267;31;33928;-68
2022/01/22 13:26:50;;;;;;;2.15;0.98;;;;;;;2.90;46.55;100899.66;5589976;31;34007;-68
2022/01/22 13:29:56;;;;;;;2.60;1.20;;;;;;;2.61;47.64;100910.34;5575168;31;34169;-68
2022/01/22 13:33:21;;;;;;;2.83;1.25;;;;;;;2.70;47.75;100919.38;5576563;31;33964;-66
2022/01/22 13:37:04;;;;;;;2.58;1.00;;;;;;;2.73;46.95;100937.50;5589893;31;34544;-68
2022/01/22 13:50:31;;;;;;;1.80;1.10;;;;;;;2.06;47.67;100975.16;5589722;31;34620;-66
2022/01/22 13:53:36;;;;;;;5.43;1.62;;;;;;;2.03;46.57;100959.66;5589759;31;33844;-66
2022/01/22 13:56:51;;;;;;;3.03;1.30;;;;;;;2.03;46.77;100980.59;5589781;31;34628;-67
2022/01/22 13:59:56;;;;;;;2.10;1.10;;;;;;;2.17;45.83;100968.31;5589703;31;33929;-66
2022/01/22 14:03:07;;;;;;;2.55;1.37;;;;;;;2.15;46.53;100978.03;5589586;31;34675;-66
2022/01/22 14:06:11;;;;;;;2.10;1.27;;;;;;;2.13;46.02;100985.13;5589637;31;34671;-66
2022/01/22 14:09:20;;;;;;;4.72;1.92;;;;;;;2.23;45.88;100982.75;5589463;31;34044;-66
2022/01/22 14:12:36;;;;;;;3.62;1.52;;;;;;;2.03;46.28;100993.69;5589591;31;33954;-66
2022/01/22 14:15:45;;;;;;;3.03;1.50;;;;;;;1.83;46.85;100989.72;5563640;31;34238;-67
2022/01/22 14:18:48;;;;;;;3.00;1.33;;;;;;;1.65;47.76;100980.41;5589361;31;34599;-67
2022/01/22 14:21:55;;;;;;;6.40;1.65;;;;;;;1.62;47.71;101010.22;5589550;31;33884;-67
2022/01/22 14:25:11;;;;;;;3.92;1.48;;;;;;;1.64;47.53;101012.75;5589371;31;34015;-67
2022/01/22 14:28:13;;;;;;;2.58;1.62;;;;;;;1.53;48.05;101028.25;5589316;31;34359;-66
2022/01/22 14:31:34;;;;;;;5.80;1.70;;;;;;;1.45;48.85;101033.97;5589661;31;33982;-66
2022/01/22 14:34:39;;;;;;;2.80;1.70;;;;;;;1.44;48.98;101068.03;5575386;31;34057;-66
2022/01/22 14:37:43;;;;;;;4.90;1.87;;;;;;;1.37;50.08;101066.69;5589270;31;34640;-67
2022/01/22 14:44:30;;;;;;;4.20;1.80;;;;;;;1.26;49.93;101077.78;5589026;31;34117;-66
2022/01/22 14:47:35;;;;;;;5.45;2.15;;;;;;;1.21;49.96;101078.06;5588797;31;34725;-66
2022/01/22 14:50:38;;;;;;;3.30;1.65;;;;;;;1.19;49.39;101087.78;5589159;31;34722;-65
2022/01/22 14:53:41;;;;;;;4.57;1.60;;;;;;;1.17;50.17;101091.41;5589108;31;35194;-66
2022/01/22 14:56:44;;;;;;;5.68;2.15;;;;;;;1.18;50.53;101083.50;5589090;31;34563;-65
2022/01/22 14:59:47;;;;;;;4.25;2.10;;;;;;;1.08;50.73;101090.19;5589130;31;33916;-67
2022/01/22 15:02:51;;;;;;;5.50;2.33;;;;;;;0.94;51.51;101095.38;5589248;31;33962;-66
2022/01/22 15:05:53;;;;;;;5.22;1.75;;;;;;;0.96;51.24;101105.75;5562359;31;33869;-66
2022/01/22 15:08:56;;;;;;;5.05;2.12;;;;;;;0.83;52.28;101116.03;5588798;31;34658;-67
2022/01/22 15:12:02;;;;;;;4.47;2.20;;;;;;;0.75;52.54;101119.09;5588862;31;34324;-64
2022/01/22 15:15:07;;;;;;;7.03;2.35;;;;;;;0.70;52.37;101130.72;5588618;31;35266;-66
2022/01/22 15:18:14;;;;;;;10.38;2.10;;;;;;;0.61;53.50;101134.72;5588709;31;34001;-66
2022/01/22 15:21:17;;;;;;;2.95;1.85;;;;;;;0.61;52.57;101147.78;5588508;31;34823;-66
2022/01/22 15:24:19;;;;;;;4.15;2.12;;;;;;;0.66;52.16;101145.75;5588431;31;34602;-67
2022/01/22 15:27:22;;;;;;;5.53;2.42;;;;;;;0.63;52.70;101156.34;5588538;31;33930;-66
2022/01/22 15:30:33;;;;;;;4.78;1.77;;;;;;;0.67;51.66;101159.66;5588422;31;34610;-67
2022/01/22 15:33:50;;;;;;;5.62;1.90;;;;;;;0.58;51.47;101173.22;5588444;31;35224;-67
2022/01/22 15:36:53;;;;;;;9.75;2.12;;;;;;;0.52;52.26;101168.31;5588085;31;34559;-66
2022/01/22 15:39:55;;;;;;;5.72;2.00;;;;;;;0.44;53.00;101176.56;5588261;31;33940;-65
2022/01/22 15:42:58;;;;;;;2.97;1.60;;;;;;;0.41;53.41;101180.19;5588130;31;34022;-66
2022/01/22 15:46:01;;;;;;;4.22;1.80;;;;;;;0.35;54.33;101177.91;5588230;31;35281;-65
2022/01/22 15:49:16;;;;;;;6.97;2.20;;;;;;;0.20;54.15;101186.56;5574334;31;34643;-67
2022/01/22 15:52:19;;;;;;;3.78;1.95;;;;;;;0.19;54.27;101197.94;5589070;31;34079;-66
2022/01/22 15:55:21;;;;;;;4.40;1.80;;;;;;;0.02;55.00;101218.84;5590377;31;34673;-66
2022/01/22 15:58:24;;;;;;;3.20;1.95;;;;;;;0.07;54.89;101216.00;5590253;31;35190;-66
2022/01/22 16:01:27;;;;;;;4.60;1.83;;;;;;;-0.03;54.24;101216.47;5590522;31;33981;-67
2022/01/22 16:04:32;;;;;;;4.03;1.70;;;;;;;0.03;53.52;101204.88;5590534;31;34668;-66
2022/01/22 16:07:35;;;;;;;2.53;1.62;;;;;;;0.04;52.44;101230.06;5576635;31;33823;-65
2022/01/22 16:10:58;;;;;;;1.95;1.27;;;;;;;0.05;51.85;101252.59;5590616;31;33981;-64
2022/01/22 16:14:00;;;;;;;3.90;1.40;;;;;;;-0.08;52.41;101269.81;5590675;31;34616;-65
2022/01/22 16:17:05;;;;;;;5.90;1.37;;;;;;;-0.09;51.73;101262.91;5590759;31;34327;-66
2022/01/22 16:20:08;;;;;;;4.03;1.70;;;;;;;-0.22;51.69;101273.13;5590612;31;33973;-66
2022/01/22 16:23:11;;;;;;;2.97;1.62;;;;;;;-0.28;53.24;101290.81;5590166;31;35491;-65